Terminal Aerodrome Forecast
Issued by NWS Cleveland, OH

Home | Current Version | Previous Version | Graphics & Text | Print | Product List | Glossary Off
Versions: 1 2 3 4 5 6 7 8 9 10 11 12 13 14 15 16 17 18 19 20 21 22 23 24

000
FTUS41 KCLE 202330
TAFTOL
TAF
KTOL 202330Z 2100/2124 20010KT P6SM BKN050 WS020/21045KT
     FM210500 22014G22KT 5SM -SHRA OVC020
     FM210900 30014G22KT 3SM -SHRA OVC008
     FM211500 32010KT P6SM VCSH OVC025
     FM211800 34010KT P6SM OVC035=

USA.gov is the U.S. government's official web portal to all federal, state and local government web resources and services.